createdAt,value
2018-12-02T00:03:07.782Z,99728.39
2018-12-02T00:07:11.916Z,99721.69
2018-12-02T00:11:15.855Z,99727.20
2018-12-02T00:15:22.898Z,99714.25
2018-12-02T00:19:26.903Z,99710.59
2018-12-02T00:23:30.965Z,99704.16
2018-12-02T00:27:34.963Z,99686.31
2018-12-02T00:31:38.976Z,99674.32
2018-12-02T00:35:42.995Z,99665.44
2018-12-02T00:39:47.049Z,99658.25
2018-12-02T00:43:51.067Z,99656.69
2018-12-02T00:47:55.141Z,99658.48
2018-12-02T00:51:59.212Z,99644.69
2018-12-02T00:56:02.117Z,99637.98
2018-12-02T01:00:11.781Z,99629.23
2018-12-02T01:04:15.809Z,99624.55
2018-12-02T01:08:19.864Z,99624.31
2018-12-02T01:12:23.786Z,99629.11
2018-12-02T01:16:27.853Z,99616.16
2018-12-02T01:20:31.880Z,99617.11
2018-12-02T01:24:35.893Z,99610.31
2018-12-02T01:28:39.908Z,99607.67
2018-12-02T01:32:43.913Z,99602.39
2018-12-02T01:36:47.858Z,99594.95
2018-12-02T01:40:51.858Z,99597.33
2018-12-02T01:44:55.924Z,99587.39
2018-12-02T01:48:59.894Z,99587.16
2018-12-02T01:53:03.949Z,99583.20
2018-12-02T01:57:08.003Z,99569.05
2018-12-02T02:01:11.974Z,99561.85
2018-12-02T02:05:17.023Z,99550.55
2018-12-02T02:09:21.032Z,99549.71
2018-12-02T02:13:25.663Z,99538.80
2018-12-02T02:17:29.735Z,99541.68
2018-12-02T02:21:34.375Z,99535.58
2018-12-02T02:25:38.386Z,99531.73
2018-12-02T02:29:42.308Z,99539.52
2018-12-02T02:33:46.296Z,99534.02
2018-12-02T02:37:51.330Z,99530.05
2018-12-02T02:41:55.400Z,99519.21
2018-12-02T02:45:59.480Z,99524.69
2018-12-02T02:50:04.568Z,99515.84
2018-12-02T02:54:08.611Z,99508.83
2018-12-02T02:58:13.226Z,99503.27
2018-12-02T03:02:17.149Z,99489.13
2018-12-02T03:06:21.183Z,99486.02
2018-12-02T03:10:25.175Z,99479.97
2018-12-02T03:14:29.072Z,99474.94
2018-12-02T03:18:33.095Z,99467.76
2018-12-02T03:22:37.115Z,99465.70
2018-12-02T03:26:41.183Z,99463.80
2018-12-02T03:30:45.100Z,99455.30
2018-12-02T03:34:49.055Z,99447.75
2018-12-02T03:38:53.018Z,99444.03
2018-12-02T03:42:57.128Z,99432.80
2018-12-02T03:47:01.215Z,99417.84
2018-12-02T03:51:06.167Z,99417.13
2018-12-02T03:55:10.211Z,99416.16
2018-12-02T03:59:14.267Z,99416.45
2018-12-02T04:03:18.209Z,99402.28
2018-12-02T04:07:22.214Z,99402.41
2018-12-02T04:11:26.223Z,99394.26
2018-12-02T04:15:30.255Z,99389.23
2018-12-02T04:19:34.298Z,99381.81
2018-12-02T04:23:38.273Z,99375.23
2018-12-02T04:27:42.338Z,99372.11
2018-12-02T04:31:46.258Z,99371.27
2018-12-02T04:35:50.291Z,99366.85
2018-12-02T04:39:54.231Z,99361.70
2018-12-02T04:43:58.232Z,99363.66
2018-12-02T04:48:02.225Z,99358.51
2018-12-02T04:52:06.246Z,99354.56
2018-12-02T04:56:10.243Z,99344.27
2018-12-02T05:00:15.993Z,99339.71
2018-12-02T05:04:19.935Z,99333.25
2018-12-02T05:08:24.010Z,99322.23
2018-12-02T05:12:27.942Z,99309.55
2018-12-02T05:16:31.926Z,99314.13
2018-12-02T05:20:35.926Z,99289.91
2018-12-02T05:24:40.003Z,99304.77
2018-12-02T05:28:43.998Z,99294.49
2018-12-02T05:32:48.763Z,99282.63
2018-12-02T05:36:52.713Z,99268.48
2018-12-02T05:40:56.622Z,99264.42
2018-12-02T05:45:01.149Z,99265.62
2018-12-02T05:49:05.503Z,99261.91
2018-12-02T05:53:09.634Z,99255.44
2018-12-02T05:57:13.561Z,99257.47
2018-12-02T06:01:17.597Z,99268.24
2018-12-02T06:05:21.659Z,99264.28
2018-12-02T06:09:25.643Z,99266.57
2018-12-02T06:13:29.657Z,99254.83
2018-12-02T06:19:02.863Z,99246.57
2018-12-02T06:23:06.991Z,99234.81
2018-12-02T06:27:11.136Z,99227.28
2018-12-02T06:31:15.067Z,99219.95
2018-12-02T06:35:19.089Z,99222.36
2018-12-02T06:39:23.102Z,99213.02
2018-12-02T06:43:27.144Z,99219.00
2018-12-02T06:47:31.124Z,99212.97
2018-12-02T06:51:35.237Z,99207.95
2018-12-02T06:55:44.667Z,99218.27
2018-12-02T07:00:04.204Z,99218.38
2018-12-02T07:04:18.485Z,99220.97
2018-12-02T07:08:22.500Z,99224.22
2018-12-02T07:12:26.584Z,99214.54
2018-12-02T07:16:30.602Z,99220.72
2018-12-02T07:20:34.646Z,99205.12
2018-12-02T07:24:39.387Z,99207.56
2018-12-02T07:28:43.407Z,99211.78
2018-12-02T07:32:47.463Z,99206.27
2018-12-02T07:36:58.928Z,99208.87
2018-12-02T07:41:18.750Z,99207.30
2018-12-02T07:45:22.770Z,99204.52
2018-12-02T07:49:26.877Z,99216.14
2018-12-02T07:53:30.936Z,99201.09
2018-12-02T07:57:34.883Z,99218.34
2018-12-02T08:01:38.880Z,99211.13
2018-12-02T08:05:42.891Z,99211.83
2018-12-02T08:09:47.771Z,99207.11
2018-12-02T08:13:51.747Z,99210.72
2018-12-02T08:17:55.788Z,99208.20
2018-12-02T08:22:00.024Z,99215.41
2018-12-02T08:26:04.047Z,99208.27
2018-12-02T08:30:14.540Z,99220.91
2018-12-02T08:34:18.634Z,99218.57
2018-12-02T08:38:22.643Z,99214.61
2018-12-02T08:42:26.645Z,99220.24
2018-12-02T08:46:30.684Z,99216.41
2018-12-02T08:50:34.734Z,99222.27
2018-12-02T08:54:38.726Z,99223.57
2018-12-02T08:58:42.727Z,99222.20
2018-12-02T09:02:53.936Z,99222.12
2018-12-02T09:06:57.953Z,99235.48
2018-12-02T09:11:01.972Z,99230.77
2018-12-02T09:15:08.112Z,99231.47
2018-12-02T09:19:12.192Z,99239.37
2018-12-02T09:23:16.114Z,99236.24
2018-12-02T09:27:20.110Z,99236.05
2018-12-02T09:31:24.075Z,99242.38
2018-12-02T09:35:28.049Z,99250.12
2018-12-02T09:39:32.195Z,99232.31
2018-12-02T09:43:36.150Z,99255.66
2018-12-02T09:47:40.096Z,99254.20
2018-12-02T09:51:44.894Z,99259.88
2018-12-02T09:55:49.374Z,99271.23
2018-12-02T09:59:53.374Z,99272.77
2018-12-02T10:03:57.395Z,99257.58
2018-12-02T10:08:01.384Z,99259.22
2018-12-02T10:12:05.374Z,99271.02
2018-12-02T10:16:15.528Z,99277.84
2018-12-02T10:20:15.652Z,99260.23
2018-12-02T10:24:19.951Z,99269.35
2018-12-02T10:28:23.872Z,99274.22
2018-12-02T10:32:27.845Z,99290.72
2018-12-02T10:36:33.786Z,99270.74
2018-12-02T10:40:38.259Z,99265.90
2018-12-02T10:44:42.263Z,99252.05
2018-12-02T10:48:46.176Z,99250.72
2018-12-02T10:52:51.094Z,99253.44
2018-12-02T10:56:55.063Z,99250.32
2018-12-02T11:01:05.447Z,99262.36
2018-12-02T11:05:09.518Z,99268.06
2018-12-02T11:09:13.619Z,99266.34
2018-12-02T11:13:17.607Z,99268.51
2018-12-02T11:17:21.614Z,99278.39
2018-12-02T11:21:25.567Z,99271.34
2018-12-02T11:25:29.538Z,99298.04
2018-12-02T11:29:33.475Z,99291.69
2018-12-02T11:33:37.421Z,99283.94
2018-12-02T11:37:41.544Z,99278.50
2018-12-02T11:41:45.471Z,99282.30
2018-12-02T11:45:49.424Z,99287.08
2018-12-02T11:49:53.350Z,99289.03
2018-12-02T11:53:57.415Z,99287.47
2018-12-02T11:58:01.348Z,99306.16
2018-12-02T12:02:07.717Z,99294.86
2018-12-02T12:06:09.401Z,99311.86
2018-12-02T12:10:17.126Z,99315.00
2018-12-02T12:14:21.069Z,99311.80
2018-12-02T12:18:25.043Z,99318.32
2018-12-02T12:22:29.191Z,99309.73
2018-12-02T12:26:33.178Z,99311.89
2018-12-02T12:30:37.771Z,99304.83
2018-12-02T12:34:41.739Z,99307.56
2018-12-02T12:38:45.819Z,99310.62
2018-12-02T12:43:10.447Z,99314.83
2018-12-02T12:47:14.700Z,99317.24
2018-12-02T12:51:18.747Z,99316.89
2018-12-02T12:55:22.784Z,99325.54
2018-12-02T12:59:26.740Z,99313.02
2018-12-02T13:03:30.688Z,99322.98
2018-12-02T13:07:34.755Z,99313.24
2018-12-02T13:11:38.719Z,99329.05
2018-12-02T13:15:42.654Z,99326.89
2018-12-02T13:19:47.620Z,99323.41
2018-12-02T13:23:51.576Z,99330.30
2018-12-02T13:27:55.718Z,99341.12
2018-12-02T13:31:59.730Z,99348.57
2018-12-02T13:36:03.809Z,99353.44
2018-12-02T13:40:11.340Z,99357.81
2018-12-02T13:44:15.329Z,99349.95
2018-12-02T13:48:19.415Z,99350.24
2018-12-02T13:52:23.443Z,99360.70
2018-12-02T13:56:27.503Z,99366.67
2018-12-02T14:00:31.864Z,99370.84
2018-12-02T14:04:35.839Z,99366.31
2018-12-02T14:08:39.912Z,99371.75
2018-12-02T14:13:00.844Z,99375.09
2018-12-02T14:17:09.108Z,99388.75
2018-12-02T14:21:13.121Z,99388.56
2018-12-02T14:25:17.026Z,99385.47
2018-12-02T14:29:30.264Z,99393.58
2018-12-02T14:33:35.873Z,99403.30
2018-12-02T14:37:38.355Z,99403.86
2018-12-02T14:41:42.431Z,99400.06
2018-12-02T14:45:46.519Z,99412.23
2018-12-02T14:49:50.476Z,99398.75
2018-12-02T14:53:54.496Z,99434.02
2018-12-02T14:57:58.450Z,99420.04
2018-12-02T15:02:02.406Z,99418.37
2018-12-02T15:06:06.385Z,99417.88
2018-12-02T15:10:14.559Z,99418.58
2018-12-02T15:14:18.496Z,99418.61
2018-12-02T15:18:22.540Z,99415.75
2018-12-02T15:22:26.558Z,99425.68
2018-12-02T15:26:30.498Z,99433.97
2018-12-02T15:30:34.509Z,99430.28
2018-12-02T15:34:38.485Z,99429.20
2018-12-02T15:38:42.660Z,99420.66
2018-12-02T15:42:48.685Z,99437.15
2018-12-02T15:46:52.888Z,99433.84
2018-12-02T15:50:57.000Z,99441.08
2018-12-02T15:55:01.068Z,99435.16
2018-12-02T15:59:08.427Z,99438.56
2018-12-02T16:03:12.438Z,99436.97
2018-12-02T16:07:16.739Z,99436.83
2018-12-02T16:11:20.684Z,99430.34
2018-12-02T16:15:26.924Z,99431.05
2018-12-02T16:19:30.956Z,99444.34
2018-12-02T16:23:34.991Z,99440.52
2018-12-02T16:27:39.040Z,99437.97
2018-12-02T16:31:43.000Z,99440.13
2018-12-02T16:35:47.011Z,99435.16
2018-12-02T16:39:51.023Z,99444.01
2018-12-02T16:43:55.155Z,99440.08
2018-12-02T16:47:59.679Z,99445.55
2018-12-02T16:52:03.867Z,99444.70
2018-12-02T16:56:12.516Z,99445.33
2018-12-02T17:00:23.047Z,99450.77
2018-12-02T17:04:27.282Z,99459.13
2018-12-02T17:08:31.465Z,99452.52
2018-12-02T17:12:35.457Z,99457.46
2018-12-02T17:16:39.382Z,99463.20
2018-12-02T17:20:43.386Z,99452.02
2018-12-02T17:24:47.423Z,99429.37
2018-12-02T17:28:51.455Z,99449.86
2018-12-02T17:32:55.406Z,99460.28
2018-12-02T17:36:59.343Z,99463.91
2018-12-02T17:41:03.795Z,99464.05
2018-12-02T17:45:09.404Z,99478.80
2018-12-02T17:49:13.352Z,99465.45
2018-12-02T17:53:17.363Z,99463.07
2018-12-02T17:57:22.410Z,99465.66
2018-12-02T18:01:26.345Z,99471.02
2018-12-02T18:05:36.879Z,99468.72
2018-12-02T18:09:40.958Z,99475.48
2018-12-02T18:13:45.322Z,99481.26
2018-12-02T18:17:49.500Z,99478.99
2018-12-02T18:21:53.678Z,99479.88
2018-12-02T18:25:57.808Z,99483.02
2018-12-02T18:30:01.897Z,99495.70
2018-12-02T18:34:06.356Z,99492.42
2018-12-02T18:38:18.592Z,99499.67
2018-12-02T18:42:22.844Z,99513.96
2018-12-02T18:46:26.864Z,99500.50
2018-12-02T18:50:30.919Z,99493.19
2018-12-02T18:54:35.016Z,99498.41
2018-12-02T18:58:39.099Z,99496.88
2018-12-02T19:02:43.457Z,99499.74
2018-12-02T19:06:47.531Z,99498.27
2018-12-02T19:10:56.774Z,99493.11
2018-12-02T19:15:00.876Z,99491.02
2018-12-02T19:19:04.971Z,99490.75
2018-12-02T19:23:14.640Z,99488.72
2018-12-02T19:27:18.887Z,99482.11
2018-12-02T19:31:23.032Z,99486.45
2018-12-02T19:35:30.834Z,99484.44
2018-12-02T19:39:34.897Z,99478.36
2018-12-02T19:43:38.967Z,99474.47
2018-12-02T19:47:42.995Z,99475.92
2018-12-02T19:51:47.014Z,99477.03
2018-12-02T19:55:51.267Z,99471.69
2018-12-02T19:59:55.555Z,99472.45
2018-12-02T20:03:59.611Z,99462.48
2018-12-02T20:08:03.778Z,99467.34
2018-12-02T20:12:07.780Z,99466.92
2018-12-02T20:16:18.623Z,99479.62
2018-12-02T20:20:27.979Z,99472.02
2018-12-02T20:24:37.353Z,99475.89
2018-12-02T20:28:48.698Z,99472.48
2018-12-02T20:32:52.723Z,99476.45
2018-12-02T20:36:56.811Z,99468.66
2018-12-02T20:41:00.761Z,99468.72
2018-12-02T20:45:07.553Z,99469.28
2018-12-02T20:49:11.735Z,99460.77
2018-12-02T20:53:16.156Z,99456.31
2018-12-02T20:57:19.671Z,99459.31
2018-12-02T21:01:23.675Z,99448.79
2018-12-02T21:05:31.344Z,99448.92
2018-12-02T21:09:35.320Z,99450.59
2018-12-02T21:13:39.264Z,99442.58
2018-12-02T21:17:43.259Z,99437.56
2018-12-02T21:21:47.263Z,99433.17
2018-12-02T21:25:52.097Z,99430.67
2018-12-02T21:29:57.043Z,99434.64
2018-12-02T21:35:03.858Z,99436.84
2018-12-02T21:39:09.768Z,99436.94
2018-12-02T21:43:15.440Z,99442.09
2018-12-02T21:47:21.333Z,99438.64
2018-12-02T21:51:23.465Z,99444.22
2018-12-02T21:55:27.412Z,99442.47
2018-12-02T21:59:31.483Z,99438.70
2018-12-02T22:03:35.536Z,99442.75
2018-12-02T22:07:40.029Z,99434.98
2018-12-02T22:11:44.063Z,99430.87
2018-12-02T22:15:48.241Z,99430.58
2018-12-02T22:19:52.311Z,99439.28
2018-12-02T22:24:01.132Z,99443.25
2018-12-02T22:28:00.238Z,99422.16
2018-12-02T22:32:04.297Z,99408.28
2018-12-02T22:36:13.919Z,99419.22
2018-12-02T22:40:18.238Z,99418.66
2018-12-02T22:44:22.162Z,99418.27
2018-12-02T22:48:26.199Z,99431.75
2018-12-02T22:52:30.462Z,99456.05
2018-12-02T22:56:34.472Z,99450.78
2018-12-02T23:00:44.053Z,99445.55
2018-12-02T23:04:48.083Z,99449.53
2018-12-02T23:08:52.118Z,99439.01
2018-12-02T23:12:56.328Z,99429.05
2018-12-02T23:17:11.623Z,99419.84
2018-12-02T23:22:18.777Z,99413.12
2018-12-02T23:26:22.790Z,99412.91
2018-12-02T23:30:27.138Z,99406.06
2018-12-02T23:34:31.086Z,99404.19
2018-12-02T23:38:35.047Z,99404.73
2018-12-02T23:42:39.110Z,99399.87
2018-12-02T23:46:43.151Z,99395.28
2018-12-02T23:50:47.108Z,99406.50
2018-12-02T23:54:51.049Z,99399.40
2018-12-02T23:58:55.009Z,99401.40
